ユジノサハリンスク の空港の天気 - METARとTAF

ホムトヴォ空港(ユジノサハリンスク) ( UHSS / UUS ) - ロシア ユジノサハリンスク
飛行場実況気象(Metar)
観測時間12/10 15:00 VLAT (12/10 05:00 UTC)
風向・風速北 3m/s
視程10km以上
天気現象
全天の8割程度の雲 雲底高度 1250m
気温-4℃
湿度63%
気圧1020hPa
METARUHSS 100500Z 01003MPS 9999 BKN041CB M04/M10 Q1020 R01/810360 NOSIG RMK QFE764/1019
過去の天気等 Google飛行場航空写真 Wunderground天気予報

過去48時間のMETAR

飛行場予報(TAF)
発表時間: 12/10 12:00 VLAT (12/10 02:00 UTC)
予報対象時間: 10日13時 VLAT ~ 11日19時 VLAT
風向・風速北北西 3m/s
視程10km以上
全天の8割程度の積乱雲 雲底高度 760m
全天を覆う雲 雲底高度 3050m
10日13時 VLAT ~ 10日16時 VLAT に一時的に
視程3000m
天気現象弱いしゅう雪
全天の8割程度の積乱雲 雲底高度 340m
TAF UHSS 100200Z 1003/1109 33003MPS 9999 BKN025CB OVC100
TEMPO 1003/1006 3000 -SHSN BKN011CB